createdAt,value
2022-12-25T00:01:18.829Z,7.00
2022-12-25T00:03:45.543Z,6.80
2022-12-25T00:06:12.303Z,6.90
2022-12-25T00:08:39.418Z,6.90
2022-12-25T00:11:08.143Z,6.90
2022-12-25T00:13:34.814Z,6.60
2022-12-25T00:16:05.198Z,6.50
2022-12-25T00:18:31.851Z,6.50
2022-12-25T00:21:01.955Z,6.30
2022-12-25T00:23:29.132Z,6.30
2022-12-25T00:25:56.299Z,6.30
2022-12-25T00:28:23.603Z,6.60
2022-12-25T00:30:50.811Z,6.80
2022-12-25T00:33:17.420Z,6.80
2022-12-25T00:35:44.060Z,6.90
2022-12-25T00:38:10.994Z,7.00
2022-12-25T00:40:44.002Z,7.00
2022-12-25T00:43:10.925Z,7.10
2022-12-25T00:45:37.638Z,7.10
2022-12-25T00:48:04.390Z,7.10
2022-12-25T00:50:33.407Z,7.20
2022-12-25T00:52:59.940Z,7.20
2022-12-25T00:55:28.877Z,7.30
2022-12-25T00:57:55.436Z,7.30
2022-12-25T01:00:23.457Z,7.30
2022-12-25T01:02:50.170Z,7.30
2022-12-25T01:05:16.851Z,7.30
2022-12-25T01:07:43.380Z,7.20
2022-12-25T01:10:22.769Z,7.20
2022-12-25T01:12:52.433Z,7.30
2022-12-25T01:15:19.202Z,7.30
2022-12-25T01:17:46.052Z,7.30
2022-12-25T01:20:13.895Z,7.20
2022-12-25T01:22:40.732Z,7.30
2022-12-25T01:25:07.750Z,7.20
2022-12-25T01:27:36.794Z,7.10
2022-12-25T01:30:03.565Z,7.30
2022-12-25T01:32:30.127Z,7.20
2022-12-25T01:34:56.670Z,7.30
2022-12-25T01:37:26.334Z,7.40
2022-12-25T01:39:52.905Z,7.40
2022-12-25T01:42:21.484Z,7.50
2022-12-25T01:44:48.615Z,7.40
2022-12-25T01:47:15.939Z,7.50
2022-12-25T01:49:44.546Z,7.50
2022-12-25T01:52:16.530Z,7.30
2022-12-25T01:54:50.456Z,7.50
2022-12-25T01:57:19.247Z,7.40
2022-12-25T01:59:46.139Z,7.40
2022-12-25T02:02:15.162Z,7.50
2022-12-25T02:04:46.362Z,7.40
2022-12-25T02:07:17.546Z,7.30
2022-12-25T02:09:44.382Z,7.40
2022-12-25T02:12:14.238Z,7.30
2022-12-25T02:14:40.869Z,7.50
2022-12-25T02:17:15.502Z,7.40
2022-12-25T02:20:00.796Z,7.50
2022-12-25T02:22:30.291Z,7.50
2022-12-25T02:25:19.300Z,7.40
2022-12-25T02:28:04.649Z,7.40
2022-12-25T02:30:35.309Z,7.30
2022-12-25T02:33:39.217Z,7.20
2022-12-25T02:36:09.653Z,7.40
2022-12-25T02:38:38.305Z,7.20
2022-12-25T02:41:08.418Z,7.40
2022-12-25T02:43:57.357Z,7.30
2022-12-25T02:46:45.928Z,7.50
2022-12-25T02:49:37.729Z,7.60
2022-12-25T02:52:29.067Z,7.30
2022-12-25T02:55:20.036Z,7.40
2022-12-25T02:58:07.060Z,7.50
2022-12-25T03:00:54.966Z,7.50
2022-12-25T03:03:43.045Z,7.50
2022-12-25T03:06:29.594Z,7.60
2022-12-25T03:09:17.842Z,7.60
2022-12-25T03:11:47.710Z,7.60
2022-12-25T03:14:33.121Z,7.40
2022-12-25T03:17:00.415Z,7.60
2022-12-25T03:19:48.479Z,7.60
2022-12-25T03:22:47.142Z,7.60
2022-12-25T03:25:32.822Z,7.40
2022-12-25T03:28:00.428Z,7.50
2022-12-25T03:30:54.258Z,7.70
2022-12-25T03:33:45.087Z,7.60
2022-12-25T03:36:31.224Z,7.60
2022-12-25T03:39:30.313Z,7.70
2022-12-25T03:42:18.351Z,7.60
2022-12-25T03:44:53.796Z,7.70
2022-12-25T03:47:35.614Z,7.70
2022-12-25T03:50:20.879Z,7.60
2022-12-25T03:53:07.767Z,7.70
2022-12-25T03:55:53.878Z,7.70
2022-12-25T03:58:41.454Z,7.70
2022-12-25T04:01:34.562Z,7.70
2022-12-25T04:04:20.004Z,7.60
2022-12-25T04:07:05.253Z,7.60
2022-12-25T04:10:01.051Z,7.50
2022-12-25T04:12:46.125Z,7.60
2022-12-25T04:15:31.344Z,7.60
2022-12-25T04:18:19.484Z,7.60
2022-12-25T04:21:04.946Z,7.60
2022-12-25T04:23:50.369Z,7.60
2022-12-25T04:26:35.793Z,7.60
2022-12-25T04:29:21.193Z,7.50
2022-12-25T04:32:06.471Z,7.30
2022-12-25T04:34:52.049Z,7.50
2022-12-25T04:37:18.759Z,7.40
2022-12-25T04:39:45.340Z,7.50
2022-12-25T04:42:11.937Z,7.50
2022-12-25T04:44:38.459Z,7.50
2022-12-25T04:47:10.929Z,7.60
2022-12-25T04:49:38.165Z,7.70
2022-12-25T04:52:04.865Z,7.70
2022-12-25T04:54:32.201Z,7.70
2022-12-25T04:56:58.741Z,7.70
2022-12-25T04:59:25.332Z,7.70
2022-12-25T05:01:52.290Z,7.70
2022-12-25T05:04:18.913Z,7.70
2022-12-25T05:06:45.542Z,7.70
2022-12-25T05:09:12.353Z,7.60
2022-12-25T05:11:38.991Z,7.80
2022-12-25T05:14:08.014Z,7.70
2022-12-25T05:16:35.040Z,7.70
2022-12-25T05:19:01.622Z,7.70
2022-12-25T05:21:28.251Z,7.80
2022-12-25T05:23:59.762Z,7.70
2022-12-25T05:26:26.698Z,7.70
2022-12-25T05:28:54.094Z,7.80
2022-12-25T05:31:21.376Z,7.80
2022-12-25T05:33:51.556Z,7.80
2022-12-25T05:36:18.793Z,7.80
2022-12-25T05:38:45.653Z,7.80
2022-12-25T05:41:12.339Z,7.80
2022-12-25T05:43:39.294Z,7.60
2022-12-25T05:46:07.169Z,7.50
2022-12-25T05:48:34.958Z,7.70
2022-12-25T05:51:05.594Z,7.70
2022-12-25T05:53:32.253Z,7.70
2022-12-25T05:56:00.637Z,7.70
2022-12-25T05:58:29.347Z,7.60
2022-12-25T06:00:56.035Z,7.60
2022-12-25T06:03:26.034Z,7.60
2022-12-25T06:05:52.720Z,7.60
2022-12-25T06:08:22.057Z,7.80
2022-12-25T06:10:53.581Z,7.80
2022-12-25T06:13:22.693Z,7.70
2022-12-25T06:15:49.238Z,7.70
2022-12-25T06:18:15.825Z,7.80
2022-12-25T06:20:42.783Z,7.80
2022-12-25T06:23:09.514Z,7.70
2022-12-25T06:25:38.459Z,7.90
2022-12-25T06:28:05.038Z,7.90
2022-12-25T06:30:31.897Z,7.90
2022-12-25T06:32:59.661Z,7.90
2022-12-25T06:35:26.781Z,7.90
2022-12-25T06:37:53.899Z,7.90
2022-12-25T06:40:20.521Z,8.00
2022-12-25T06:42:47.115Z,8.00
2022-12-25T06:45:14.851Z,8.00
2022-12-25T06:47:41.403Z,8.00
2022-12-25T06:50:08.009Z,8.00
2022-12-25T06:52:34.729Z,8.10
2022-12-25T06:55:03.799Z,8.00
2022-12-25T06:57:32.969Z,8.00
2022-12-25T07:00:01.998Z,8.10
2022-12-25T07:02:28.876Z,8.00
2022-12-25T07:04:55.520Z,8.10
2022-12-25T07:07:23.554Z,8.10
2022-12-25T07:09:50.105Z,8.10
2022-12-25T07:12:18.381Z,8.10
2022-12-25T07:14:45.687Z,8.20
2022-12-25T07:17:14.598Z,8.20
2022-12-25T07:19:45.139Z,8.20
2022-12-25T07:22:12.684Z,8.20
2022-12-25T07:24:39.410Z,8.10
2022-12-25T07:27:06.135Z,8.10
2022-12-25T07:29:32.782Z,8.10
2022-12-25T07:31:59.488Z,8.10
2022-12-25T07:34:26.260Z,8.10
2022-12-25T07:36:54.477Z,8.10
2022-12-25T07:39:23.658Z,8.20
2022-12-25T07:41:52.616Z,8.20
2022-12-25T07:44:19.173Z,8.20
2022-12-25T07:46:45.895Z,8.30
2022-12-25T07:49:12.483Z,8.30
2022-12-25T07:51:39.102Z,8.30
2022-12-25T07:54:05.776Z,8.40
2022-12-25T07:56:32.471Z,8.40
2022-12-25T07:59:01.202Z,8.40
2022-12-25T08:01:28.113Z,8.50
2022-12-25T08:03:56.364Z,8.50
2022-12-25T08:06:29.677Z,8.60
2022-12-25T08:08:57.413Z,8.60
2022-12-25T08:11:24.036Z,8.60
2022-12-25T08:13:50.593Z,8.60
2022-12-25T08:16:17.178Z,8.70
2022-12-25T08:18:44.411Z,8.70
2022-12-25T08:21:11.889Z,8.80
2022-12-25T08:23:40.074Z,8.70
2022-12-25T08:26:08.414Z,8.70
2022-12-25T08:28:35.867Z,8.80
2022-12-25T08:31:16.595Z,8.90
2022-12-25T08:33:43.347Z,8.90
2022-12-25T08:36:12.851Z,8.90
2022-12-25T08:38:40.006Z,8.90
2022-12-25T08:41:06.883Z,8.90
2022-12-25T08:43:33.836Z,8.90
2022-12-25T08:46:00.442Z,9.00
2022-12-25T08:48:27.859Z,8.90
2022-12-25T08:50:54.720Z,9.00
2022-12-25T08:53:23.812Z,9.00
2022-12-25T08:55:56.574Z,9.10
2022-12-25T08:58:23.205Z,9.10
2022-12-25T09:00:49.749Z,9.20
2022-12-25T09:03:16.455Z,9.20
2022-12-25T09:05:43.113Z,9.20
2022-12-25T09:08:09.757Z,9.30
2022-12-25T09:10:38.853Z,9.20
2022-12-25T09:13:05.537Z,9.20
2022-12-25T09:15:32.184Z,9.30
2022-12-25T09:17:58.784Z,9.30
2022-12-25T09:20:27.873Z,9.20
2022-12-25T09:22:56.831Z,9.20
2022-12-25T09:25:25.894Z,9.20
2022-12-25T09:27:52.476Z,9.20
2022-12-25T09:30:19.039Z,9.20
2022-12-25T09:32:45.550Z,9.20
2022-12-25T09:35:14.112Z,9.20
2022-12-25T09:37:40.660Z,9.20
2022-12-25T09:40:07.647Z,9.00
2022-12-25T09:42:34.730Z,9.00
2022-12-25T09:45:06.006Z,9.00
2022-12-25T09:47:35.060Z,9.10
2022-12-25T09:50:21.923Z,9.00
2022-12-25T09:52:53.999Z,9.10
2022-12-25T09:55:22.889Z,9.10
2022-12-25T09:57:50.501Z,9.10
2022-12-25T10:00:19.062Z,9.00
2022-12-25T10:02:58.068Z,9.00
2022-12-25T10:05:43.103Z,9.00
2022-12-25T10:08:19.661Z,8.90
2022-12-25T10:11:02.883Z,8.90
2022-12-25T10:13:45.978Z,8.90
2022-12-25T10:16:15.621Z,9.00
2022-12-25T10:18:57.341Z,9.00
2022-12-25T10:21:27.977Z,9.00
2022-12-25T10:24:14.846Z,8.90
2022-12-25T10:26:41.652Z,9.00
2022-12-25T10:29:15.997Z,8.90
2022-12-25T10:31:45.425Z,8.90
2022-12-25T10:34:13.097Z,8.90
2022-12-25T10:36:39.955Z,8.90
2022-12-25T10:39:06.793Z,8.90
2022-12-25T10:42:04.219Z,8.90
2022-12-25T10:44:30.885Z,8.90
2022-12-25T10:46:58.691Z,8.90
2022-12-25T10:49:29.915Z,9.00
2022-12-25T10:51:56.591Z,9.00
2022-12-25T10:54:23.212Z,8.90
2022-12-25T10:56:57.117Z,9.00
2022-12-25T10:59:24.514Z,9.00
2022-12-25T11:01:55.251Z,9.00
2022-12-25T11:04:28.923Z,9.10
2022-12-25T11:06:56.867Z,9.10
2022-12-25T11:09:23.672Z,9.20
2022-12-25T11:11:50.325Z,9.20
2022-12-25T11:14:20.394Z,9.20
2022-12-25T11:16:47.274Z,9.40
2022-12-25T11:19:26.779Z,9.30
2022-12-25T11:21:54.806Z,9.30
2022-12-25T11:24:22.722Z,9.40
2022-12-25T11:26:51.052Z,9.30
2022-12-25T11:29:26.784Z,9.40
2022-12-25T11:31:55.768Z,9.40
2022-12-25T11:34:35.390Z,9.30
2022-12-25T11:37:05.469Z,9.40
2022-12-25T11:39:34.192Z,9.40
2022-12-25T11:42:03.881Z,9.30
2022-12-25T11:44:37.177Z,9.50
2022-12-25T11:47:08.521Z,9.50
2022-12-25T11:49:42.625Z,9.40
2022-12-25T11:52:13.558Z,9.40
2022-12-25T11:54:51.854Z,9.50
2022-12-25T11:57:22.830Z,9.50
2022-12-25T11:59:55.991Z,9.50
2022-12-25T12:02:37.695Z,9.40
2022-12-25T12:05:09.129Z,9.30
2022-12-25T12:07:37.411Z,9.40
2022-12-25T12:10:06.781Z,9.30
2022-12-25T12:12:52.339Z,9.40
2022-12-25T12:15:18.916Z,9.30
2022-12-25T12:17:45.574Z,9.40
2022-12-25T12:20:12.346Z,9.40
2022-12-25T12:22:39.051Z,9.50
2022-12-25T12:25:09.461Z,9.50
2022-12-25T12:27:39.970Z,9.60
2022-12-25T12:30:07.776Z,9.60
2022-12-25T12:32:42.872Z,9.60
2022-12-25T12:35:15.901Z,9.70
2022-12-25T12:37:43.377Z,9.70
2022-12-25T12:40:23.741Z,9.70
2022-12-25T12:42:52.238Z,9.80
2022-12-25T12:45:29.869Z,9.80
2022-12-25T12:47:56.883Z,9.80
2022-12-25T12:50:29.421Z,9.90
2022-12-25T12:52:58.339Z,9.90
2022-12-25T12:55:32.905Z,9.80
2022-12-25T12:58:02.471Z,9.70
2022-12-25T13:00:51.807Z,9.70
2022-12-25T13:03:36.903Z,9.70
2022-12-25T13:06:13.104Z,9.70
2022-12-25T13:08:58.477Z,9.70
2022-12-25T13:11:29.524Z,9.90
2022-12-25T13:13:57.637Z,9.80
2022-12-25T13:16:26.619Z,9.70
2022-12-25T13:18:54.245Z,9.70
2022-12-25T13:21:22.938Z,9.70
2022-12-25T13:23:55.316Z,9.70
2022-12-25T13:26:21.920Z,9.70
2022-12-25T13:28:48.451Z,9.70
2022-12-25T13:31:18.363Z,9.80
2022-12-25T13:33:46.105Z,9.80
2022-12-25T13:36:13.897Z,9.80
2022-12-25T13:38:43.771Z,9.80
2022-12-25T13:41:28.900Z,9.90
2022-12-25T13:43:58.371Z,9.90
2022-12-25T13:46:26.694Z,9.90
2022-12-25T13:49:00.344Z,9.90
2022-12-25T13:51:30.153Z,9.90
2022-12-25T13:54:06.722Z,9.80
2022-12-25T13:56:34.292Z,9.90
2022-12-25T13:59:00.924Z,9.90
2022-12-25T14:01:30.127Z,9.90
2022-12-25T14:03:56.810Z,10.00
2022-12-25T14:06:30.716Z,9.90
2022-12-25T14:08:58.401Z,9.90
2022-12-25T14:11:26.241Z,9.90
2022-12-25T14:13:56.395Z,9.80
2022-12-25T14:16:26.446Z,9.90
2022-12-25T14:19:00.712Z,9.90
2022-12-25T14:21:32.759Z,9.90
2022-12-25T14:23:59.651Z,9.90
2022-12-25T14:26:27.997Z,10.00
2022-12-25T14:29:00.488Z,9.90
2022-12-25T14:31:28.372Z,10.00
2022-12-25T14:33:55.903Z,9.90
2022-12-25T14:36:22.522Z,10.00
2022-12-25T14:38:57.161Z,9.90
2022-12-25T14:41:37.612Z,9.90
2022-12-25T14:44:24.154Z,9.80
2022-12-25T14:46:50.672Z,9.90
2022-12-25T14:49:23.543Z,9.90
2022-12-25T14:51:50.671Z,10.00
2022-12-25T14:54:21.744Z,9.90
2022-12-25T14:56:49.222Z,9.90
2022-12-25T14:59:20.176Z,10.00
2022-12-25T15:01:50.802Z,9.90
2022-12-25T15:04:18.212Z,9.90
2022-12-25T15:06:59.244Z,10.00
2022-12-25T15:09:27.328Z,10.00
2022-12-25T15:11:55.963Z,10.00
2022-12-25T15:14:23.107Z,10.00
2022-12-25T15:16:51.571Z,10.20
2022-12-25T15:19:25.930Z,10.00
2022-12-25T15:21:53.924Z,10.00
2022-12-25T15:24:22.992Z,10.00
2022-12-25T15:26:55.337Z,10.00
2022-12-25T15:29:44.592Z,10.00
2022-12-25T15:32:15.916Z,10.00
2022-12-25T15:34:42.602Z,9.90
2022-12-25T15:37:09.157Z,10.00
2022-12-25T15:39:37.884Z,9.90
2022-12-25T15:42:12.208Z,9.80
2022-12-25T15:44:39.484Z,9.80
2022-12-25T15:47:06.301Z,9.90
2022-12-25T15:49:32.973Z,10.00
2022-12-25T15:51:59.675Z,9.90
2022-12-25T15:54:27.228Z,10.00
2022-12-25T15:56:55.685Z,10.00
2022-12-25T15:59:22.627Z,10.00
2022-12-25T16:01:51.001Z,9.90
2022-12-25T16:04:17.880Z,9.90
2022-12-25T16:06:44.577Z,10.00
2022-12-25T16:09:11.780Z,9.90
2022-12-25T16:11:38.475Z,9.90
2022-12-25T16:14:05.495Z,9.80
2022-12-25T16:16:32.629Z,9.70
2022-12-25T16:19:01.729Z,9.70
2022-12-25T16:21:35.445Z,9.80
2022-12-25T16:24:02.010Z,9.80
2022-12-25T16:26:30.560Z,9.80
2022-12-25T16:28:58.453Z,9.70
2022-12-25T16:31:28.211Z,9.60
2022-12-25T16:33:54.886Z,9.70
2022-12-25T16:36:26.789Z,9.70
2022-12-25T16:38:53.722Z,9.70
2022-12-25T16:41:20.432Z,9.70
2022-12-25T16:43:47.165Z,9.80
2022-12-25T16:46:17.252Z,9.50
2022-12-25T16:48:43.931Z,9.50
2022-12-25T16:51:11.780Z,9.50
2022-12-25T16:53:38.732Z,9.60
2022-12-25T16:56:12.607Z,9.60
2022-12-25T16:58:39.219Z,9.70
2022-12-25T17:01:06.748Z,9.60
2022-12-25T17:03:33.482Z,9.60
2022-12-25T17:06:00.225Z,9.60
2022-12-25T17:08:26.874Z,9.60
2022-12-25T17:10:53.551Z,9.60
2022-12-25T17:13:22.736Z,9.70
2022-12-25T17:15:50.818Z,9.60
2022-12-25T17:18:21.759Z,9.70
2022-12-25T17:20:55.359Z,9.70
2022-12-25T17:23:21.937Z,9.70
2022-12-25T17:25:48.577Z,9.80
2022-12-25T17:28:15.375Z,9.60
2022-12-25T17:30:41.963Z,9.70
2022-12-25T17:33:08.553Z,9.70
2022-12-25T17:35:39.198Z,9.60
2022-12-25T17:38:05.959Z,9.40
2022-12-25T17:40:32.584Z,9.50
2022-12-25T17:42:59.221Z,9.50
2022-12-25T17:45:28.576Z,9.60
2022-12-25T17:47:57.438Z,9.60
2022-12-25T17:50:25.519Z,9.60
2022-12-25T17:52:52.823Z,9.60
2022-12-25T17:55:19.476Z,9.50
2022-12-25T17:57:46.187Z,9.60
2022-12-25T18:00:13.172Z,9.60
2022-12-25T18:02:40.080Z,9.60
2022-12-25T18:05:11.733Z,9.50
2022-12-25T18:07:40.883Z,9.60
2022-12-25T18:10:10.306Z,9.60
2022-12-25T18:12:37.141Z,9.50
2022-12-25T18:15:06.506Z,9.50
2022-12-25T18:17:33.340Z,9.50
2022-12-25T18:20:00.028Z,9.60
2022-12-25T18:22:26.753Z,9.60
2022-12-25T18:24:53.300Z,9.60
2022-12-25T18:27:20.458Z,9.60
2022-12-25T18:29:47.212Z,9.60
2022-12-25T18:32:16.217Z,9.60
2022-12-25T18:34:42.795Z,9.60
2022-12-25T18:37:09.406Z,9.60
2022-12-25T18:39:39.282Z,9.60
2022-12-25T18:42:24.618Z,9.70
2022-12-25T18:44:51.196Z,9.70
2022-12-25T18:47:17.786Z,9.60
2022-12-25T18:49:47.482Z,9.60
2022-12-25T18:52:48.873Z,9.50
2022-12-25T18:55:03.341Z,9.60
2022-12-25T18:57:32.036Z,9.60
2022-12-25T19:00:01.475Z,9.60
2022-12-25T19:02:28.961Z,9.60
2022-12-25T19:04:58.129Z,9.50
2022-12-25T19:07:25.049Z,9.60
2022-12-25T19:09:54.138Z,9.70
2022-12-25T19:12:20.833Z,9.60
2022-12-25T19:14:48.476Z,9.60
2022-12-25T19:17:15.710Z,9.70
2022-12-25T19:19:42.396Z,9.60
2022-12-25T19:22:09.172Z,9.60
2022-12-25T19:24:36.235Z,9.50
2022-12-25T19:27:05.645Z,9.50
2022-12-25T19:29:32.601Z,9.70
2022-12-25T19:32:00.410Z,9.60
2022-12-25T19:34:27.175Z,9.50
2022-12-25T19:36:53.786Z,9.10
2022-12-25T19:39:20.432Z,9.20
2022-12-25T19:41:47.333Z,9.20
2022-12-25T19:44:13.968Z,9.30
2022-12-25T19:46:43.066Z,9.40
2022-12-25T19:49:13.469Z,9.30
2022-12-25T19:51:41.528Z,9.40
2022-12-25T19:54:10.492Z,9.30
2022-12-25T19:56:37.215Z,9.40
2022-12-25T19:59:03.924Z,9.30
2022-12-25T20:01:31.201Z,9.30
2022-12-25T20:03:58.348Z,9.40
2022-12-25T20:06:29.272Z,9.40
2022-12-25T20:08:59.409Z,9.40
2022-12-25T20:11:27.447Z,9.40
2022-12-25T20:13:54.106Z,9.20
2022-12-25T20:16:23.911Z,9.20
2022-12-25T20:18:50.970Z,9.10
2022-12-25T20:21:18.804Z,9.10
2022-12-25T20:23:46.647Z,9.20
2022-12-25T20:26:16.164Z,9.30
2022-12-25T20:28:43.382Z,9.30
2022-12-25T20:31:21.922Z,9.40
2022-12-25T20:33:48.870Z,9.50
2022-12-25T20:36:16.054Z,9.40
2022-12-25T20:38:42.683Z,9.40
2022-12-25T20:41:29.996Z,9.50
2022-12-25T20:43:57.418Z,9.50
2022-12-25T20:46:24.393Z,9.50
2022-12-25T20:48:53.324Z,9.50
2022-12-25T20:51:21.689Z,9.50
2022-12-25T20:53:50.905Z,9.60
2022-12-25T20:56:21.130Z,9.60
2022-12-25T20:58:47.821Z,9.70
2022-12-25T21:01:18.806Z,9.70
2022-12-25T21:03:45.700Z,9.80
2022-12-25T21:06:14.966Z,9.80
2022-12-25T21:08:41.636Z,9.80
2022-12-25T21:11:09.116Z,9.80
2022-12-25T21:13:42.358Z,10.00
2022-12-25T21:16:11.214Z,10.10
2022-12-25T21:18:37.981Z,10.10
2022-12-25T21:21:07.912Z,10.30
2022-12-25T21:23:35.942Z,10.30
2022-12-25T21:26:28.925Z,10.40
2022-12-25T21:28:57.415Z,10.60
2022-12-25T21:31:26.863Z,10.70
2022-12-25T21:33:55.132Z,10.60
2022-12-25T21:36:34.509Z,10.70
2022-12-25T21:39:02.709Z,10.70
2022-12-25T21:41:29.948Z,10.80
2022-12-25T21:43:56.711Z,10.70
2022-12-25T21:46:23.979Z,10.60
2022-12-25T21:48:50.806Z,10.80
2022-12-25T21:51:41.448Z,10.80
2022-12-25T21:54:08.400Z,11.00
2022-12-25T21:56:43.087Z,11.00
2022-12-25T21:59:13.333Z,11.10
2022-12-25T22:01:40.179Z,11.10
2022-12-25T22:04:08.361Z,11.10
2022-12-25T22:06:53.596Z,11.00
2022-12-25T22:09:20.773Z,11.20
2022-12-25T22:12:06.096Z,11.20
2022-12-25T22:14:54.377Z,11.40
2022-12-25T22:17:42.346Z,11.30
2022-12-25T22:20:10.725Z,11.40
2022-12-25T22:22:37.460Z,11.30
2022-12-25T22:25:05.182Z,11.20
2022-12-25T22:27:33.042Z,11.40
2022-12-25T22:30:00.206Z,11.20
2022-12-25T22:32:27.094Z,11.30
2022-12-25T22:34:55.894Z,11.40
2022-12-25T22:37:23.546Z,11.40
2022-12-25T22:39:50.189Z,11.30
2022-12-25T22:42:16.885Z,11.30
2022-12-25T22:44:46.003Z,11.40
2022-12-25T22:47:12.720Z,11.40
2022-12-25T22:49:39.539Z,11.40
2022-12-25T22:52:08.201Z,11.40
2022-12-25T22:54:34.955Z,11.40
2022-12-25T22:57:03.967Z,11.40
2022-12-25T22:59:31.009Z,11.40
2022-12-25T23:01:59.851Z,11.40
2022-12-25T23:04:29.350Z,11.30
2022-12-25T23:06:58.332Z,11.40
2022-12-25T23:09:27.772Z,11.30
2022-12-25T23:11:55.500Z,11.50
2022-12-25T23:14:42.389Z,11.40
2022-12-25T23:17:30.531Z,11.40
2022-12-25T23:20:16.418Z,11.40
2022-12-25T23:23:01.950Z,11.40
2022-12-25T23:25:47.266Z,11.50
2022-12-25T23:28:13.829Z,11.50
2022-12-25T23:30:40.407Z,11.50
2022-12-25T23:33:07.404Z,11.50
2022-12-25T23:35:34.317Z,11.40
2022-12-25T23:38:01.004Z,11.50
2022-12-25T23:40:27.751Z,11.50
2022-12-25T23:42:56.764Z,11.50
2022-12-25T23:45:28.321Z,11.40
2022-12-25T23:47:54.899Z,11.40
2022-12-25T23:50:23.970Z,11.40
2022-12-25T23:52:50.572Z,11.40
2022-12-25T23:55:17.223Z,11.50
2022-12-25T23:57:46.354Z,11.50
